Time;durP1;ratioP1;P1;durP2;ratioP2;P2;SDS_P1;SDS_P2;PMS_P1;PMS_P2;Temp;Humidity;BMP_temperature;BMP_pressure;BME280_temperature;BME280_humidity;BME280_pressure;Samples;Min_cycle;Max_cycle;Signal;HPM_P1;HPM_P2
2023/09/11 00:02:03;;;;;;;2.10;0.80;;;;;;;9.81;100.00;100704.59;104498;1257;75310;-52
2023/09/11 00:04:30;;;;;;;2.40;0.80;;;;;;;9.80;100.00;100700.83;104506;1260;66585;-53
2023/09/11 00:06:58;;;;;;;1.30;0.70;;;;;;;9.81;100.00;100699.92;104597;1262;70490;-51
2023/09/11 00:09:26;;;;;;;1.30;0.90;;;;;;;9.83;100.00;100701.85;104591;1257;59765;-51
2023/09/11 00:11:53;;;;;;;2.70;0.70;;;;;;;9.85;100.00;100701.27;104551;1257;59820;-52
2023/09/11 00:14:20;;;;;;;2.30;0.90;;;;;;;9.85;100.00;100701.43;104517;1262;73090;-52
2023/09/11 00:16:48;;;;;;;1.20;0.70;;;;;;;9.82;100.00;100699.36;104635;1258;66002;-50
2023/09/11 00:19:15;;;;;;;1.60;0.80;;;;;;;9.77;100.00;100696.46;104978;1263;70621;-51
2023/09/11 00:21:43;;;;;;;1.00;0.60;;;;;;;9.71;100.00;100695.77;104532;1262;60417;-49
2023/09/11 00:24:10;;;;;;;1.50;0.70;;;;;;;9.64;100.00;100698.82;104339;1256;61515;-50
2023/09/11 00:26:37;;;;;;;1.50;0.80;;;;;;;9.59;100.00;100694.52;104137;1257;71885;-52
2023/09/11 00:29:05;;;;;;;1.60;0.80;;;;;;;9.55;100.00;100693.37;108442;1256;66748;-51
2023/09/11 00:31:32;;;;;;;1.80;0.60;;;;;;;9.52;100.00;100696.52;108476;1256;72643;-51
2023/09/11 00:33:59;;;;;;;1.00;0.70;;;;;;;9.52;100.00;100695.98;108624;1256;60500;-51
2023/09/11 00:36:27;;;;;;;1.70;0.70;;;;;;;9.54;100.00;100694.27;108434;1256;62113;-51
2023/09/11 00:38:54;;;;;;;1.80;0.60;;;;;;;9.58;100.00;100693.10;108483;1256;75072;-52
2023/09/11 00:41:21;;;;;;;1.10;0.60;;;;;;;9.61;100.00;100694.60;108663;1256;65596;-53
2023/09/11 00:43:49;;;;;;;0.70;0.50;;;;;;;9.66;100.00;100690.34;108713;1256;74331;-52
2023/09/11 00:46:16;;;;;;;3.10;0.70;;;;;;;9.72;100.00;100690.34;108575;1259;60052;-52
2023/09/11 00:48:44;;;;;;;1.10;0.70;;;;;;;9.76;100.00;100687.17;108599;1256;59085;-52
2023/09/11 00:51:11;;;;;;;1.20;0.80;;;;;;;9.80;100.00;100687.77;108495;1256;73092;-51
2023/09/11 00:53:38;;;;;;;1.70;0.70;;;;;;;9.84;100.00;100688.55;108595;1256;65513;-53
2023/09/11 00:56:06;;;;;;;2.70;0.80;;;;;;;9.87;100.00;100688.45;108531;1256;72678;-52
2023/09/11 00:58:33;;;;;;;3.10;0.80;;;;;;;9.87;100.00;100691.66;108647;1256;58842;-53
2023/09/11 01:01:01;;;;;;;2.20;0.80;;;;;;;9.87;100.00;100688.46;108562;1256;60040;-52
2023/09/11 01:03:28;;;;;;;1.30;0.60;;;;;;;9.84;100.00;100685.14;108379;1256;70898;-52
2023/09/11 01:05:56;;;;;;;1.60;0.90;;;;;;;9.83;100.00;100680.86;108592;1256;65703;-52
2023/09/11 01:08:23;;;;;;;1.50;0.70;;;;;;;9.85;100.00;100677.41;108558;1256;71400;-51
2023/09/11 01:10:50;;;;;;;1.80;0.60;;;;;;;9.87;100.00;100673.73;108658;1259;62221;-51
2023/09/11 01:13:18;;;;;;;2.00;0.80;;;;;;;9.90;100.00;100672.41;107410;1257;60005;-51
2023/09/11 01:15:53;;;;;;;2.50;0.70;;;;;;;9.93;100.00;100667.67;104346;1259;72989;-50
2023/09/11 01:18:31;;;;;;;1.70;0.70;;;;;;;9.95;100.00;100665.11;108300;1259;65513;-50
2023/09/11 01:21:20;;;;;;;1.20;0.60;;;;;;;9.95;100.00;100667.60;105268;1256;71228;-50
2023/09/11 01:24:26;;;;;;;4.20;0.70;;;;;;;9.97;100.00;100664.48;104365;1259;60591;-49
2023/09/11 01:27:36;;;;;;;1.30;0.70;;;;;;;9.99;100.00;100659.41;104666;1258;60559;-51
2023/09/11 01:30:05;;;;;;;2.10;0.90;;;;;;;9.99;100.00;100659.21;104253;1264;74010;-52
2023/09/11 01:32:32;;;;;;;1.20;0.80;;;;;;;9.99;100.00;100658.85;104386;1257;66773;-51
2023/09/11 01:34:59;;;;;;;3.90;1.20;;;;;;;9.99;100.00;100654.54;104281;1261;71312;-50
2023/09/11 01:37:29;;;;;;;1.80;0.90;;;;;;;9.99;100.00;100656.35;104725;1257;60487;-48
2023/09/11 01:39:57;;;;;;;1.20;0.70;;;;;;;9.97;100.00;100656.56;104709;1260;60582;-52
2023/09/11 01:42:39;;;;;;;1.40;0.80;;;;;;;9.95;100.00;100655.56;106017;1257;72570;-52
2023/09/11 01:45:06;;;;;;;1.60;0.70;;;;;;;9.92;100.00;100654.41;104428;1257;66045;-51
2023/09/11 01:47:37;;;;;;;2.20;0.80;;;;;;;9.87;100.00;100651.88;104624;1260;71975;-53
2023/09/11 01:50:05;;;;;;;1.90;0.90;;;;;;;9.82;100.00;100652.20;104387;1258;60431;-53
2023/09/11 01:52:32;;;;;;;1.70;0.80;;;;;;;9.79;100.00;100650.15;104415;1261;60544;-54
2023/09/11 01:55:00;;;;;;;3.00;0.80;;;;;;;9.77;100.00;100645.92;104494;1257;72964;-54
2023/09/11 01:57:27;;;;;;;1.70;1.00;;;;;;;9.77;100.00;100647.02;105036;1257;66945;-54
2023/09/11 01:59:55;;;;;;;2.30;1.00;;;;;;;9.78;100.00;100642.49;104352;1265;72756;-52
2023/09/11 02:02:22;;;;;;;1.90;0.80;;;;;;;9.80;100.00;100645.46;104415;1262;60824;-52
2023/09/11 02:04:50;;;;;;;1.60;0.70;;;;;;;9.78;100.00;100647.67;104574;1259;60578;-53
2023/09/11 02:07:17;;;;;;;1.20;0.80;;;;;;;9.73;100.00;100644.95;104632;1259;73919;-53
2023/09/11 02:09:45;;;;;;;1.10;0.80;;;;;;;9.69;100.00;100649.02;104691;1258;66826;-53
2023/09/11 02:12:12;;;;;;;1.10;0.70;;;;;;;9.68;100.00;100645.50;104553;1259;73048;-53
2023/09/11 02:14:39;;;;;;;1.30;0.90;;;;;;;9.65;100.00;100646.84;104554;1256;60566;-53
2023/09/11 02:17:07;;;;;;;1.20;0.80;;;;;;;9.63;100.00;100643.30;105293;1263;60909;-54
2023/09/11 02:19:34;;;;;;;1.40;0.80;;;;;;;9.61;100.00;100639.23;104440;1260;72699;-53
2023/09/11 02:22:01;;;;;;;1.70;0.90;;;;;;;9.59;100.00;100636.62;104508;1256;67640;-52
2023/09/11 02:24:29;;;;;;;1.10;1.00;;;;;;;9.55;100.00;100633.33;104457;1256;72452;-52
2023/09/11 02:26:57;;;;;;;1.50;0.80;;;;;;;9.51;100.00;100631.48;104748;1257;60454;-53
2023/09/11 02:29:24;;;;;;;1.90;0.80;;;;;;;9.45;100.00;100633.08;105756;1260;60546;-52
2023/09/11 02:31:52;;;;;;;3.50;0.80;;;;;;;9.39;100.00;100630.39;104766;1256;72956;-52
2023/09/11 02:34:19;;;;;;;2.20;0.80;;;;;;;9.36;100.00;100627.45;104335;1256;69207;-53
2023/09/11 02:36:46;;;;;;;1.80;0.80;;;;;;;9.31;100.00;100628.31;104465;1256;72191;-53
2023/09/11 02:39:14;;;;;;;2.80;0.90;;;;;;;9.21;100.00;100637.03;104711;1256;61663;-52
2023/09/11 02:41:41;;;;;;;1.20;0.60;;;;;;;9.11;100.00;100643.22;104282;1256;60932;-52
2023/09/11 02:44:09;;;;;;;2.00;0.70;;;;;;;9.04;100.00;100645.38;104296;1256;72608;-52
2023/09/11 02:46:36;;;;;;;2.00;0.80;;;;;;;9.04;100.00;100643.59;104506;1264;65957;-52
2023/09/11 02:49:03;;;;;;;1.60;0.60;;;;;;;9.07;100.00;100644.23;104556;1264;72437;-52
2023/09/11 02:51:31;;;;;;;1.00;0.60;;;;;;;9.09;100.00;100644.89;104459;1256;61245;-52
2023/09/11 02:53:58;;;;;;;1.20;0.70;;;;;;;9.13;100.00;100642.98;104386;1257;61663;-53
2023/09/11 02:56:25;;;;;;;1.00;0.90;;;;;;;9.16;100.00;100645.96;104932;1261;73784;-53
2023/09/11 02:58:53;;;;;;;1.20;0.80;;;;;;;9.17;100.00;100651.13;105435;1256;65650;-53
2023/09/11 03:01:20;;;;;;;2.00;0.90;;;;;;;9.18;100.00;100648.42;104550;1259;72484;-52
2023/09/11 03:03:48;;;;;;;1.80;1.00;;;;;;;9.18;100.00;100653.96;104591;1258;60450;-53
2023/09/11 03:06:15;;;;;;;1.30;0.90;;;;;;;9.19;100.00;100649.45;104670;1256;60410;-53
2023/09/11 03:08:43;;;;;;;3.00;0.90;;;;;;;9.18;100.00;100648.21;104696;1256;73836;-53
2023/09/11 03:11:11;;;;;;;0.90;0.70;;;;;;;9.19;100.00;100646.76;104527;1256;67472;-53
2023/09/11 03:13:38;;;;;;;2.10;0.70;;;;;;;9.16;100.00;100650.08;104454;1259;71498;-52
2023/09/11 03:16:10;;;;;;;1.20;0.70;;;;;;;9.07;100.00;100649.77;104581;1260;60625;-53
2023/09/11 03:18:38;;;;;;;1.40;0.70;;;;;;;9.01;100.00;100645.64;104916;1253;60483;-50
2023/09/11 03:21:07;;;;;;;1.70;0.80;;;;;;;8.99;100.00;100643.56;106887;1254;74197;-53
2023/09/11 03:23:34;;;;;;;0.90;0.60;;;;;;;8.98;100.00;100642.50;104623;1254;65587;-53
2023/09/11 03:26:02;;;;;;;0.90;0.50;;;;;;;8.99;100.00;100642.14;104739;1254;72640;-53
2023/09/11 03:28:30;;;;;;;3.30;0.70;;;;;;;9.01;100.00;100640.11;104882;1256;61670;-52
2023/09/11 03:31:01;;;;;;;1.10;0.80;;;;;;;9.02;100.00;100639.89;108842;1254;59772;-54
2023/09/11 03:33:28;;;;;;;1.30;0.70;;;;;;;9.00;100.00;100640.32;108768;1253;74412;-53
2023/09/11 03:35:58;;;;;;;0.90;0.70;;;;;;;8.97;100.00;100638.41;108928;1254;67327;-54
2023/09/11 03:38:25;;;;;;;1.10;0.80;;;;;;;8.96;100.00;100637.00;108727;1256;73672;-52
2023/09/11 03:40:53;;;;;;;1.60;0.90;;;;;;;8.97;100.00;100632.34;108843;1254;60713;-54
2023/09/11 03:43:20;;;;;;;2.40;1.00;;;;;;;8.95;100.00;100635.98;108891;1254;58735;-54
2023/09/11 03:45:48;;;;;;;1.40;0.70;;;;;;;8.93;100.00;100635.30;108827;1254;72554;-54
2023/09/11 03:48:18;;;;;;;1.10;0.60;;;;;;;8.94;100.00;100639.02;108762;1254;65632;-52
2023/09/11 03:50:46;;;;;;;3.70;0.80;;;;;;;8.96;100.00;100635.41;108860;1254;72414;-53
2023/09/11 03:53:13;;;;;;;1.00;0.70;;;;;;;8.95;100.00;100636.31;108813;1256;62808;-53
2023/09/11 03:55:41;;;;;;;1.70;0.70;;;;;;;8.94;100.00;100636.00;107250;1257;60567;-52
2023/09/11 03:58:08;;;;;;;1.00;0.70;;;;;;;8.88;100.00;100635.98;104576;1254;73933;-52
2023/09/11 04:00:35;;;;;;;3.30;0.70;;;;;;;8.88;100.00;100635.63;104539;1256;65601;-52
2023/09/11 04:03:03;;;;;;;2.80;0.80;;;;;;;8.92;100.00;100637.67;104514;1254;73444;-53
2023/09/11 04:05:31;;;;;;;1.00;0.60;;;;;;;8.97;100.00;100642.17;104929;1259;61725;-53
2023/09/11 04:07:58;;;;;;;1.70;0.80;;;;;;;9.03;100.00;100640.56;104637;1257;60813;-50
2023/09/11 04:10:26;;;;;;;1.60;0.90;;;;;;;9.09;100.00;100641.31;104484;1257;74446;-52
2023/09/11 04:12:53;;;;;;;3.10;0.70;;;;;;;9.16;100.00;100640.95;104665;1260;67750;-54
2023/09/11 04:15:20;;;;;;;1.60;0.90;;;;;;;9.22;100.00;100635.76;104977;1256;73148;-53
2023/09/11 04:17:48;;;;;;;2.80;1.00;;;;;;;9.29;100.00;100639.66;104751;1254;60801;-53
2023/09/11 04:20:15;;;;;;;1.10;0.80;;;;;;;9.35;100.00;100634.48;104488;1256;60606;-52
2023/09/11 04:22:43;;;;;;;1.80;0.80;;;;;;;9.39;100.00;100629.32;104470;1256;74035;-53
2023/09/11 04:25:10;;;;;;;4.00;0.90;;;;;;;9.44;100.00;100626.48;104604;1256;67116;-53
2023/09/11 04:27:37;;;;;;;3.00;1.20;;;;;;;9.49;100.00;100633.15;104634;1258;71448;-53
2023/09/11 04:30:05;;;;;;;1.60;0.90;;;;;;;9.54;100.00;100634.96;104492;1257;60568;-53
2023/09/11 04:32:33;;;;;;;1.20;0.80;;;;;;;9.56;100.00;100638.50;104872;1258;61322;-53
2023/09/11 04:35:00;;;;;;;1.00;0.80;;;;;;;9.54;100.00;100635.86;104518;1258;73920;-54
2023/09/11 04:37:30;;;;;;;1.00;0.70;;;;;;;9.56;100.00;100632.40;105063;1257;65644;-53
2023/09/11 04:39:58;;;;;;;2.40;0.60;;;;;;;9.65;100.00;100629.60;108788;1256;71851;-53
2023/09/11 04:42:26;;;;;;;3.20;0.90;;;;;;;9.77;100.00;100626.02;108894;1255;61658;-54
2023/09/11 04:44:58;;;;;;;1.20;0.70;;;;;;;9.88;100.00;100626.39;108178;1256;59567;-53
2023/09/11 04:47:30;;;;;;;3.20;0.80;;;;;;;9.99;100.00;100628.73;106037;1257;74363;-53
2023/09/11 04:49:58;;;;;;;1.40;0.80;;;;;;;10.05;100.00;100623.69;105179;1258;65577;-53
2023/09/11 04:52:26;;;;;;;1.00;0.60;;;;;;;10.09;100.00;100625.73;105003;1258;72527;-53
2023/09/11 04:54:53;;;;;;;1.30;0.80;;;;;;;10.11;100.00;100625.28;104805;1256;62028;-53
2023/09/11 04:57:21;;;;;;;1.60;0.80;;;;;;;10.17;100.00;100627.80;105577;1258;60540;-53
2023/09/11 04:59:48;;;;;;;1.50;0.70;;;;;;;10.25;100.00;100622.71;104909;1256;73840;-54
2023/09/11 05:02:16;;;;;;;1.20;0.80;;;;;;;10.35;100.00;100621.48;105097;1256;67200;-54
2023/09/11 05:04:46;;;;;;;1.60;0.90;;;;;;;10.46;100.00;100620.73;104788;1256;71409;-52
2023/09/11 05:07:13;;;;;;;1.40;0.80;;;;;;;10.58;100.00;100619.06;105198;1255;61578;-53
2023/09/11 05:09:41;;;;;;;2.00;0.80;;;;;;;10.71;100.00;100612.71;105264;1254;60569;-54
2023/09/11 05:12:08;;;;;;;7.70;0.90;;;;;;;10.84;100.00;100604.88;105101;1258;72644;-54
2023/09/11 05:14:36;;;;;;;4.00;0.90;;;;;;;10.96;100.00;100604.23;105027;1258;65610;-53
2023/09/11 05:17:03;;;;;;;6.70;1.10;;;;;;;11.08;100.00;100605.08;104905;1256;72682;-53
2023/09/11 05:19:30;;;;;;;6.10;1.10;;;;;;;11.20;100.00;100605.52;104827;1254;60654;-53
2023/09/11 05:21:58;;;;;;;4.20;0.90;;;;;;;11.29;100.00;100603.91;104708;1255;60573;-52
2023/09/11 05:24:26;;;;;;;1.30;0.80;;;;;;;11.40;100.00;100604.61;104687;1258;74451;-53
2023/09/11 05:26:53;;;;;;;3.10;1.20;;;;;;;11.49;100.00;100603.69;104881;1262;67764;-54
2023/09/11 05:29:20;;;;;;;1.40;0.90;;;;;;;11.59;100.00;100607.96;105135;1258;74799;-54
2023/09/11 05:31:48;;;;;;;5.30;2.10;;;;;;;11.70;100.00;100608.79;104818;1256;60552;-53
2023/09/11 05:34:15;;;;;;;6.10;2.40;;;;;;;11.82;100.00;100609.06;106860;1256;60450;-52
2023/09/11 05:36:42;;;;;;;3.10;1.30;;;;;;;11.94;100.00;100609.48;104820;1253;72587;-52
2023/09/11 05:39:10;;;;;;;2.40;1.40;;;;;;;12.07;100.00;100610.38;105048;1253;65681;-53
2023/09/11 05:41:37;;;;;;;1.80;1.40;;;;;;;12.21;100.00;100609.27;104623;1256;71404;-50
2023/09/11 05:44:05;;;;;;;4.30;1.40;;;;;;;12.33;100.00;100608.62;105079;1259;62102;-54
2023/09/11 05:46:32;;;;;;;9.20;2.10;;;;;;;12.44;100.00;100610.66;105088;1253;60408;-53
2023/09/11 05:49:00;;;;;;;9.20;2.20;;;;;;;12.55;100.00;100606.94;104731;1257;74542;-53
2023/09/11 05:51:27;;;;;;;9.00;2.30;;;;;;;12.67;100.00;100601.19;104764;1253;67077;-53
2023/09/11 05:53:54;;;;;;;16.80;2.80;;;;;;;12.80;100.00;100601.36;104774;1256;71464;-54
2023/09/11 05:56:22;;;;;;;14.20;2.40;;;;;;;12.92;100.00;100596.30;104759;1258;60452;-54
2023/09/11 05:58:49;;;;;;;5.10;2.50;;;;;;;13.04;100.00;100593.25;104719;1260;61224;-53
2023/09/11 06:01:16;;;;;;;6.20;2.30;;;;;;;13.16;100.00;100588.58;104847;1253;72887;-51
2023/09/11 06:03:44;;;;;;;8.70;2.40;;;;;;;13.27;100.00;100588.95;105142;1253;65128;-52
2023/09/11 06:06:12;;;;;;;5.10;2.60;;;;;;;13.37;100.00;100593.73;104922;1253;72675;-52
2023/09/11 06:08:39;;;;;;;5.70;2.20;;;;;;;13.46;100.00;100595.12;104953;1253;61764;-52
2023/09/11 06:11:07;;;;;;;6.40;2.90;;;;;;;13.54;100.00;100599.80;105344;1253;60632;-52
2023/09/11 06:13:35;;;;;;;5.30;2.20;;;;;;;13.62;100.00;100603.35;104978;1253;74656;-53
2023/09/11 06:16:03;;;;;;;11.10;3.70;;;;;;;13.73;100.00;100605.00;105418;1253;66913;-53
2023/09/11 06:18:31;;;;;;;5.40;2.70;;;;;;;13.84;100.00;100603.77;106321;1257;70864;-52
2023/09/11 06:20:58;;;;;;;4.50;2.70;;;;;;;13.95;100.00;100600.88;105463;1253;61663;-53
2023/09/11 06:23:26;;;;;;;9.60;4.00;;;;;;;14.05;100.00;100605.43;105026;1252;60479;-53
2023/09/11 06:25:53;;;;;;;7.70;2.50;;;;;;;14.16;100.00;100605.61;104989;1253;73051;-53
2023/09/11 06:28:21;;;;;;;9.20;2.20;;;;;;;14.28;100.00;100601.94;105029;1257;67163;-54
2023/09/11 06:30:48;;;;;;;6.80;2.30;;;;;;;14.39;100.00;100604.29;105134;1253;72678;-53
2023/09/11 06:33:15;;;;;;;6.60;3.10;;;;;;;14.51;100.00;100598.12;104909;1258;60560;-53
2023/09/11 06:35:43;;;;;;;6.70;2.20;;;;;;;14.60;100.00;100598.72;104979;1259;60592;-52
2023/09/11 06:38:11;;;;;;;13.80;1.80;;;;;;;14.69;100.00;100595.36;108947;1253;73844;-54
2023/09/11 06:40:39;;;;;;;5.10;1.30;;;;;;;14.78;100.00;100597.25;109194;1253;66762;-54
2023/09/11 06:43:06;;;;;;;12.10;1.90;;;;;;;14.87;100.00;100593.88;108960;1253;70851;-53
2023/09/11 06:45:34;;;;;;;5.60;1.30;;;;;;;14.96;100.00;100596.99;108999;1253;60744;-53
2023/09/11 06:48:02;;;;;;;6.90;1.30;;;;;;;15.07;100.00;100601.11;109227;1253;60036;-52
2023/09/11 06:50:29;;;;;;;6.00;1.00;;;;;;;15.18;100.00;100595.46;108914;1253;73840;-52
2023/09/11 06:52:56;;;;;;;2.40;1.10;;;;;;;15.29;100.00;100595.57;109167;1253;66717;-53
2023/09/11 06:55:24;;;;;;;4.50;1.00;;;;;;;15.41;100.00;100593.28;109255;1253;72719;-52
2023/09/11 06:57:56;;;;;;;3.90;1.20;;;;;;;15.55;100.00;100595.60;109010;1257;61197;-53
2023/09/11 07:00:24;;;;;;;2.50;1.10;;;;;;;15.72;100.00;100591.26;108961;1252;60496;-52
2023/09/11 07:02:51;;;;;;;4.20;1.00;;;;;;;15.88;100.00;100584.34;109136;1253;72622;-52
2023/09/11 07:05:20;;;;;;;2.20;1.00;;;;;;;16.03;100.00;100579.69;108951;1253;64848;-53
2023/09/11 07:07:47;;;;;;;2.10;0.80;;;;;;;16.18;100.00;100579.72;108976;1252;71913;-53
2023/09/11 07:10:15;;;;;;;3.10;0.80;;;;;;;16.32;100.00;100580.69;106443;1258;60546;-54
2023/09/11 07:12:49;;;;;;;1.70;0.90;;;;;;;16.47;100.00;100579.45;105065;1253;60653;-53
2023/09/11 07:15:17;;;;;;;1.50;1.30;;;;;;;16.59;100.00;100574.37;105041;1253;75922;-52
2023/09/11 07:17:45;;;;;;;2.80;1.40;;;;;;;16.71;100.00;100576.39;105124;1259;65520;-52
2023/09/11 07:20:12;;;;;;;6.30;1.50;;;;;;;16.82;100.00;100574.27;105256;1257;71474;-52
2023/09/11 07:22:40;;;;;;;7.00;1.50;;;;;;;16.91;100.00;100576.80;105112;1253;60530;-54
2023/09/11 07:25:11;;;;;;;7.70;1.80;;;;;;;16.98;100.00;100580.54;104955;1254;60316;-52
2023/09/11 07:27:38;;;;;;;4.20;1.30;;;;;;;17.04;100.00;100574.35;104764;1258;72991;-53
2023/09/11 07:30:09;;;;;;;5.10;1.50;;;;;;;17.11;100.00;100569.96;105071;1259;65647;-52
2023/09/11 07:32:36;;;;;;;6.80;1.70;;;;;;;17.19;100.00;100568.00;104971;1254;72678;-51
2023/09/11 07:35:04;;;;;;;5.40;1.80;;;;;;;17.27;100.00;100567.08;105245;1253;60050;-52
2023/09/11 07:37:32;;;;;;;5.50;1.30;;;;;;;17.37;100.00;100567.36;105124;1253;60613;-53
2023/09/11 07:40:00;;;;;;;7.10;1.70;;;;;;;17.45;100.00;100566.52;105155;1253;73869;-52
2023/09/11 07:42:28;;;;;;;3.00;1.20;;;;;;;17.54;100.00;100567.55;106027;1253;66003;-53
2023/09/11 07:44:55;;;;;;;1.70;1.00;;;;;;;17.66;100.00;100564.99;104974;1253;72601;-52
2023/09/11 07:47:23;;;;;;;4.30;0.80;;;;;;;17.78;100.00;100564.42;105779;1253;60438;-52
2023/09/11 07:49:50;;;;;;;3.00;0.70;;;;;;;17.88;100.00;100560.31;105280;1254;60671;-52
2023/09/11 07:52:17;;;;;;;1.40;0.50;;;;;;;17.99;100.00;100562.31;104909;1258;72011;-52
2023/09/11 07:54:44;;;;;;;1.80;0.60;;;;;;;18.09;100.00;100559.95;104962;1258;66741;-52
2023/09/11 07:57:12;;;;;;;1.00;0.60;;;;;;;18.20;100.00;100565.43;105199;1256;71740;-53
2023/09/11 07:59:40;;;;;;;0.70;0.50;;;;;;;18.27;100.00;100562.41;105072;1253;61912;-52
2023/09/11 08:02:07;;;;;;;2.50;0.60;;;;;;;18.33;100.00;100559.27;106478;1253;60572;-51
2023/09/11 08:04:36;;;;;;;1.30;0.60;;;;;;;18.39;100.00;100561.39;105036;1253;72654;-52
2023/09/11 08:07:04;;;;;;;2.80;0.70;;;;;;;18.42;100.00;100558.07;105005;1253;65836;-53
2023/09/11 08:09:32;;;;;;;1.10;0.50;;;;;;;18.46;100.00;100549.64;104910;1258;71421;-53
2023/09/11 08:12:00;;;;;;;1.70;0.50;;;;;;;18.51;100.00;100552.77;105250;1253;60531;-52
2023/09/11 08:14:28;;;;;;;3.50;0.50;;;;;;;18.58;100.00;100553.02;105097;1253;59301;-53
2023/09/11 08:16:55;;;;;;;1.00;0.50;;;;;;;18.66;100.00;100546.81;106430;1253;72761;-53
2023/09/11 08:19:23;;;;;;;0.60;0.40;;;;;;;18.78;100.00;100540.52;105265;1253;65629;-49
2023/09/11 08:21:51;;;;;;;3.60;0.50;;;;;;;18.91;100.00;100539.24;104869;1259;72687;-52
2023/09/11 08:24:18;;;;;;;0.70;0.40;;;;;;;19.04;100.00;100543.11;104690;1258;60455;-53
2023/09/11 08:26:46;;;;;;;0.50;0.40;;;;;;;19.13;100.00;100542.59;104773;1254;60397;-53
2023/09/11 08:29:15;;;;;;;1.10;0.40;;;;;;;19.22;100.00;100543.58;104684;1253;74501;-53
2023/09/11 08:31:42;;;;;;;0.70;0.30;;;;;;;19.31;100.00;100549.32;104995;1258;66768;-54
2023/09/11 08:34:09;;;;;;;3.80;0.20;;;;;;;19.40;100.00;100547.23;104728;1253;72714;-53
2023/09/11 08:36:37;;;;;;;0.90;0.30;;;;;;;19.48;100.00;100545.77;107710;1258;59260;-53
2023/09/11 08:39:04;;;;;;;3.60;0.30;;;;;;;19.55;100.00;100540.52;105081;1259;60452;-52
2023/09/11 08:41:32;;;;;;;0.80;0.30;;;;;;;19.61;100.00;100538.96;105097;1258;72627;-52
2023/09/11 08:44:00;;;;;;;1.00;0.30;;;;;;;19.66;100.00;100540.76;104939;1257;66904;-53
2023/09/11 08:46:31;;;;;;;0.50;0.30;;;;;;;19.72;100.00;100539.42;104902;1265;72380;-53
2023/09/11 08:48:59;;;;;;;1.10;0.30;;;;;;;19.77;100.00;100535.77;105036;1259;60941;-52
2023/09/11 08:51:47;;;;;;;0.70;0.20;;;;;;;19.80;100.00;100531.77;104983;1257;60603;-54
2023/09/11 08:54:15;;;;;;;1.70;0.40;;;;;;;19.84;100.00;100529.11;104766;1259;72114;-54
2023/09/11 08:56:42;;;;;;;0.30;0.30;;;;;;;19.91;100.00;100526.00;105086;1255;67738;-53
2023/09/11 08:59:10;;;;;;;0.30;0.20;;;;;;;20.00;100.00;100526.23;105119;1259;72638;-54
2023/09/11 09:01:39;;;;;;;0.40;0.20;;;;;;;20.09;100.00;100526.46;105127;1254;62285;-55
2023/09/11 09:04:06;;;;;;;0.50;0.30;;;;;;;20.17;100.00;100517.66;105072;1253;60970;-54
2023/09/11 09:06:34;;;;;;;0.40;0.30;;;;;;;20.26;100.00;100514.77;105265;1259;73860;-53
2023/09/11 09:09:01;;;;;;;0.40;0.30;;;;;;;20.31;100.00;100512.37;104706;1262;66780;-53
2023/09/11 09:11:29;;;;;;;0.50;0.20;;;;;;;20.36;100.00;100508.36;104766;1259;73201;-54
2023/09/11 09:13:56;;;;;;;0.40;0.30;;;;;;;20.43;100.00;100505.85;104644;1261;60534;-54
2023/09/11 09:16:23;;;;;;;0.30;0.30;;;;;;;20.51;100.00;100506.13;104905;1260;60522;-54
2023/09/11 09:18:51;;;;;;;1.10;0.30;;;;;;;20.55;100.00;100503.29;105040;1254;72704;-54
2023/09/11 09:21:25;;;;;;;0.40;0.30;;;;;;;20.56;100.00;100502.09;105388;1253;65651;-54
2023/09/11 09:23:53;;;;;;;0.90;0.30;;;;;;;20.53;100.00;100504.10;105484;1259;72718;-54
2023/09/11 09:26:21;;;;;;;0.40;0.40;;;;;;;20.51;100.00;100500.85;104773;1257;61273;-54
2023/09/11 09:31:23;;;;;;;2.20;0.30;;;;;;;20.52;100.00;100517.66;101949;1293;601638;-53
2023/09/11 09:33:53;;;;;;;1.00;0.30;;;;;;;20.59;100.00;100512.63;108217;1267;58911;-54
2023/09/11 09:36:20;;;;;;;1.50;0.30;;;;;;;20.64;100.00;100512.41;108010;1267;58849;-54
2023/09/11 09:38:48;;;;;;;0.90;0.20;;;;;;;20.68;100.00;100512.04;107991;1271;70927;-53
2023/09/11 09:41:20;;;;;;;2.80;0.40;;;;;;;20.73;100.00;100506.23;108082;1272;67223;-53
2023/09/11 09:43:52;;;;;;;0.40;0.30;;;;;;;20.78;100.00;100509.11;108108;1266;164820;-53
2023/09/11 09:46:20;;;;;;;1.30;0.30;;;;;;;20.83;100.00;100507.80;108317;1266;59114;-53
2023/09/11 09:48:48;;;;;;;0.50;0.30;;;;;;;20.91;100.00;100505.36;108245;1264;61820;-53
2023/09/11 09:51:15;;;;;;;0.40;0.30;;;;;;;20.97;100.00;100502.67;108227;1265;71028;-53
2023/09/11 09:53:46;;;;;;;0.70;0.30;;;;;;;21.03;100.00;100503.61;108218;1265;69112;-53
2023/09/11 09:56:14;;;;;;;0.80;0.30;;;;;;;21.08;100.00;100495.78;108157;1265;71447;-53
2023/09/11 09:58:43;;;;;;;1.10;0.80;;;;;;;21.12;100.00;100490.87;108238;1266;59225;-53
2023/09/11 10:01:16;;;;;;;0.70;0.30;;;;;;;21.15;100.00;100489.88;108284;1264;60002;-53
2023/09/11 10:03:48;;;;;;;0.30;0.20;;;;;;;21.19;100.00;100487.08;108366;1266;73164;-53
2023/09/11 10:06:18;;;;;;;0.90;0.30;;;;;;;21.21;100.00;100489.67;108328;1264;66950;-53
2023/09/11 10:08:46;;;;;;;0.40;0.20;;;;;;;21.19;100.00;100488.18;108221;1265;73191;-53
2023/09/11 10:11:31;;;;;;;0.40;0.30;;;;;;;21.18;100.00;100482.26;106913;1266;60154;-52
2023/09/11 10:13:59;;;;;;;0.50;0.30;;;;;;;21.15;100.00;100485.30;104056;1270;59818;-54
2023/09/11 10:16:27;;;;;;;0.40;0.20;;;;;;;21.16;100.00;100479.60;107557;1268;71845;-53
2023/09/11 10:18:55;;;;;;;0.80;0.20;;;;;;;21.20;100.00;100476.58;105042;1264;66976;-53
2023/09/11 10:21:24;;;;;;;2.40;0.30;;;;;;;21.25;100.00;100475.41;105800;1268;73108;-53
2023/09/11 10:23:52;;;;;;;0.30;0.20;;;;;;;21.31;100.00;100473.10;105278;1263;59756;-53
2023/09/11 10:26:41;;;;;;;0.40;0.30;;;;;;;21.37;100.00;100469.52;104193;1265;61105;-53
2023/09/11 10:29:18;;;;;;;0.20;0.20;;;;;;;21.43;100.00;100465.55;104174;1266;72323;-53
2023/09/11 10:31:51;;;;;;;0.60;0.20;;;;;;;21.48;100.00;100468.98;104123;1268;67026;-52
2023/09/11 10:34:19;;;;;;;0.60;0.30;;;;;;;21.48;100.00;100471.84;103933;1267;72655;-53
2023/09/11 10:36:57;;;;;;;0.60;0.30;;;;;;;21.51;100.00;100475.69;104127;1271;61098;-55
2023/09/11 10:39:24;;;;;;;0.30;0.30;;;;;;;21.50;100.00;100468.61;103962;1266;60124;-52
2023/09/11 10:41:52;;;;;;;0.20;0.20;;;;;;;21.47;100.00;100465.91;104075;1272;72165;-54
2023/09/11 10:44:19;;;;;;;0.30;0.20;;;;;;;21.44;100.00;100462.67;104153;1264;66785;-53
2023/09/11 10:46:51;;;;;;;0.90;0.30;;;;;;;21.43;100.00;100459.55;104103;1266;72708;-53
2023/09/11 10:49:20;;;;;;;0.50;0.20;;;;;;;21.40;100.00;100458.85;104576;1264;61169;-53
2023/09/11 10:51:48;;;;;;;1.30;0.40;;;;;;;21.39;100.00;100455.98;104018;1266;60105;-53
2023/09/11 10:54:16;;;;;;;1.10;0.20;;;;;;;21.39;100.00;100453.82;104012;1270;71872;-53
2023/09/11 10:56:44;;;;;;;1.20;0.30;;;;;;;21.39;100.00;100450.71;104971;1270;67046;-53
2023/09/11 10:59:14;;;;;;;0.20;0.20;;;;;;;21.39;100.00;100445.97;104582;1266;72779;-53
2023/09/11 11:01:41;;;;;;;1.50;0.40;;;;;;;21.39;100.00;100447.06;104352;1269;60759;-52
2023/09/11 11:04:09;;;;;;;0.40;0.20;;;;;;;21.38;100.00;100449.85;108062;1264;60024;-53
2023/09/11 11:06:36;;;;;;;0.30;0.30;;;;;;;21.38;100.00;100449.73;106852;1265;72076;-53
2023/09/11 11:09:03;;;;;;;2.30;0.30;;;;;;;21.36;100.00;100446.39;103980;1273;67673;-54
2023/09/11 11:11:35;;;;;;;0.30;0.30;;;;;;;21.33;100.00;100443.93;104251;1263;71461;-54
2023/09/11 11:14:21;;;;;;;0.40;0.20;;;;;;;21.32;100.00;100439.64;104128;1261;61255;-54
2023/09/11 11:17:07;;;;;;;0.70;0.20;;;;;;;21.32;100.00;100438.71;104369;1262;59785;-53
2023/09/11 11:19:37;;;;;;;0.30;0.20;;;;;;;21.32;100.00;100434.54;105099;1266;71155;-53
2023/09/11 11:22:07;;;;;;;1.70;0.30;;;;;;;21.30;100.00;100430.60;104429;1267;67258;-53